createdAt,value
2023-04-19T00:00:48.183Z,30.67
2023-04-19T00:01:48.253Z,32.09
2023-04-19T00:02:48.255Z,32.61
2023-04-19T00:03:48.384Z,29.45
2023-04-19T00:04:48.266Z,28.64
2023-04-19T00:05:48.123Z,30.49
2023-04-19T00:06:48.129Z,30.00
2023-04-19T00:07:48.121Z,31.54
2023-04-19T00:08:48.085Z,30.19
2023-04-19T00:09:48.144Z,29.04
2023-04-19T00:10:48.106Z,32.27
2023-04-19T00:11:48.104Z,28.76
2023-04-19T00:12:48.086Z,30.15
2023-04-19T00:13:48.072Z,31.38
2023-04-19T00:14:48.077Z,30.15
2023-04-19T00:15:48.075Z,30.07
2023-04-19T00:16:48.111Z,31.77
2023-04-19T00:17:48.101Z,30.76
2023-04-19T00:18:48.059Z,31.12
2023-04-19T00:19:48.066Z,29.87
2023-04-19T00:20:48.046Z,29.97
2023-04-19T00:21:48.036Z,30.79
2023-04-19T00:22:48.049Z,31.57
2023-04-19T00:23:48.039Z,28.71
2023-04-19T00:24:48.036Z,30.85
2023-04-19T00:25:48.024Z,29.81
2023-04-19T00:26:47.994Z,28.94
2023-04-19T00:27:47.976Z,31.14
2023-04-19T00:28:47.975Z,29.51
2023-04-19T00:29:47.968Z,28.88
2023-04-19T00:30:48.015Z,31.54
2023-04-19T00:31:47.993Z,29.90
2023-04-19T00:32:47.991Z,31.85
2023-04-19T00:33:47.960Z,31.36
2023-04-19T00:34:47.970Z,32.63
2023-04-19T00:35:47.956Z,31.10
2023-04-19T00:36:47.916Z,32.28
2023-04-19T00:37:47.902Z,32.53
2023-04-19T00:38:47.907Z,30.68
2023-04-19T00:39:47.913Z,30.37
2023-04-19T00:40:47.896Z,30.93
2023-04-19T00:41:47.902Z,32.15
2023-04-19T00:42:47.906Z,29.19
2023-04-19T00:43:47.871Z,30.61
2023-04-19T00:44:47.877Z,31.38
2023-04-19T00:45:47.892Z,29.93
2023-04-19T00:46:47.897Z,31.97
2023-04-19T00:47:47.901Z,31.44
2023-04-19T00:48:47.834Z,30.93
2023-04-19T00:49:47.857Z,32.25
2023-04-19T00:50:47.851Z,30.43
2023-04-19T00:51:47.811Z,32.19
2023-04-19T00:52:47.821Z,32.06
2023-04-19T00:53:47.836Z,30.91
2023-04-19T00:54:47.842Z,30.70
2023-04-19T00:55:47.816Z,30.18
2023-04-19T00:56:47.780Z,31.59
2023-04-19T00:57:47.791Z,31.44
2023-04-19T00:58:47.778Z,29.02
2023-04-19T00:59:47.798Z,30.64
2023-04-19T01:00:47.752Z,31.68
2023-04-19T01:01:47.814Z,29.55
2023-04-19T01:02:48.071Z,31.69
2023-04-19T01:03:47.866Z,30.08
2023-04-19T01:04:47.753Z,28.48
2023-04-19T01:05:47.745Z,31.48
2023-04-19T01:06:47.769Z,33.46
2023-04-19T01:07:47.724Z,30.77
2023-04-19T01:08:47.751Z,33.88
2023-04-19T01:09:47.728Z,32.11
2023-04-19T01:10:47.710Z,31.71
2023-04-19T01:11:47.711Z,29.64
2023-04-19T01:12:47.753Z,31.76
2023-04-19T01:13:47.780Z,31.68
2023-04-19T01:14:47.832Z,34.29
2023-04-19T01:15:47.896Z,31.99
2023-04-19T01:16:47.835Z,32.59
2023-04-19T01:17:47.883Z,32.33
2023-04-19T01:18:47.874Z,29.89
2023-04-19T01:19:47.928Z,31.29
2023-04-19T01:20:47.979Z,31.11
2023-04-19T01:21:47.976Z,32.40
2023-04-19T01:22:47.985Z,32.13
2023-04-19T01:23:48.055Z,31.46
2023-04-19T01:24:48.088Z,31.77
2023-04-19T01:25:48.119Z,32.50
2023-04-19T01:26:48.134Z,30.97
2023-04-19T01:27:48.205Z,31.87
2023-04-19T01:28:48.182Z,32.44
2023-04-19T01:29:48.237Z,30.21
2023-04-19T01:30:48.220Z,31.80
2023-04-19T01:31:48.336Z,35.88
2023-04-19T01:32:48.342Z,31.12
2023-04-19T01:33:48.331Z,33.21
2023-04-19T01:34:48.369Z,31.83
2023-04-19T01:35:48.373Z,31.52
2023-04-19T01:36:48.424Z,33.27
2023-04-19T01:37:48.451Z,32.39
2023-04-19T01:38:48.450Z,32.03
2023-04-19T01:39:48.502Z,33.24
2023-04-19T01:40:48.521Z,31.66
2023-04-19T01:41:48.539Z,32.52
2023-04-19T01:42:48.595Z,31.88
2023-04-19T01:43:48.630Z,31.73
2023-04-19T01:44:48.669Z,31.61
2023-04-19T01:45:48.654Z,33.56
2023-04-19T01:46:48.736Z,30.92
2023-04-19T01:47:48.740Z,32.34
2023-04-19T01:48:48.744Z,32.21
2023-04-19T01:49:48.746Z,33.39
2023-04-19T01:50:48.780Z,32.52
2023-04-19T01:51:48.806Z,29.14
2023-04-19T01:52:48.833Z,31.08
2023-04-19T01:53:48.874Z,31.36
2023-04-19T01:54:48.938Z,32.40
2023-04-19T01:55:48.944Z,33.62
2023-04-19T01:56:48.949Z,30.64
2023-04-19T01:57:48.985Z,31.81
2023-04-19T01:58:49.027Z,32.92
2023-04-19T01:59:49.051Z,33.69
2023-04-19T02:00:49.165Z,32.58
2023-04-19T02:01:49.146Z,33.31
2023-04-19T02:02:49.281Z,32.51
2023-04-19T02:03:49.277Z,33.95
2023-04-19T02:04:49.187Z,31.03
2023-04-19T02:05:49.241Z,32.39
2023-04-19T02:06:49.252Z,32.26
2023-04-19T02:07:49.300Z,31.95
2023-04-19T02:08:49.298Z,34.82
2023-04-19T02:09:49.328Z,31.40
2023-04-19T02:10:49.357Z,34.63
2023-04-19T02:11:49.416Z,34.75
2023-04-19T02:12:49.389Z,34.27
2023-04-19T02:13:49.432Z,33.13
2023-04-19T02:14:49.451Z,32.57
2023-04-19T02:15:49.506Z,32.35
2023-04-19T02:16:49.536Z,34.15
2023-04-19T02:17:49.623Z,35.31
2023-04-19T02:18:49.570Z,34.38
2023-04-19T02:19:49.592Z,31.11
2023-04-19T02:20:49.607Z,35.39
2023-04-19T02:21:49.636Z,34.68
2023-04-19T02:22:49.653Z,31.61
2023-04-19T02:23:49.700Z,33.65
2023-04-19T02:24:49.754Z,31.87
2023-04-19T02:25:49.768Z,32.11
2023-04-19T02:26:49.777Z,34.23
2023-04-19T02:27:49.797Z,35.93
2023-04-19T02:28:49.837Z,33.60
2023-04-19T02:29:49.876Z,33.29
2023-04-19T02:30:49.869Z,34.73
2023-04-19T02:31:49.957Z,34.60
2023-04-19T02:32:50.021Z,33.00
2023-04-19T02:33:49.965Z,34.20
2023-04-19T02:34:49.998Z,32.44
2023-04-19T02:35:50.061Z,33.75
2023-04-19T02:36:50.048Z,36.24
2023-04-19T02:37:50.061Z,36.53
2023-04-19T02:38:50.092Z,34.90
2023-04-19T02:39:50.143Z,33.31
2023-04-19T02:40:50.135Z,33.19
2023-04-19T02:41:50.182Z,31.24
2023-04-19T02:42:50.170Z,34.14
2023-04-19T02:43:50.194Z,35.13
2023-04-19T02:44:50.218Z,34.38
2023-04-19T02:45:50.301Z,35.90
2023-04-19T02:46:50.274Z,33.73
2023-04-19T02:47:50.288Z,34.46
2023-04-19T02:48:50.278Z,36.89
2023-04-19T02:49:50.360Z,34.88
2023-04-19T02:50:50.334Z,36.10
2023-04-19T02:51:50.390Z,35.49
2023-04-19T02:52:50.381Z,33.37
2023-04-19T02:53:50.437Z,32.45
2023-04-19T02:54:50.434Z,35.24
2023-04-19T02:55:50.461Z,33.91
2023-04-19T02:56:50.466Z,33.84
2023-04-19T02:57:50.516Z,33.80
2023-04-19T02:58:50.531Z,34.28
2023-04-19T02:59:50.572Z,36.27
2023-04-19T03:00:50.599Z,33.01
2023-04-19T03:01:50.680Z,33.30
2023-04-19T03:02:50.707Z,35.25
2023-04-19T03:03:50.732Z,35.28
2023-04-19T03:04:50.709Z,34.79
2023-04-19T03:05:50.714Z,35.51
2023-04-19T03:06:50.772Z,36.00
2023-04-19T03:07:50.776Z,35.25
2023-04-19T03:08:50.808Z,35.34
2023-04-19T03:09:50.816Z,35.70
2023-04-19T03:10:50.847Z,35.00
2023-04-19T03:11:50.893Z,34.44
2023-04-19T03:12:50.894Z,34.11
2023-04-19T03:13:50.924Z,33.62
2023-04-19T03:14:50.978Z,34.78
2023-04-19T03:15:51.030Z,33.44
2023-04-19T03:16:50.996Z,37.53
2023-04-19T03:17:51.075Z,33.42
2023-04-19T03:18:51.066Z,32.90
2023-04-19T03:19:51.076Z,35.11
2023-04-19T03:20:51.117Z,35.76
2023-04-19T03:21:51.174Z,35.47
2023-04-19T03:22:51.194Z,35.93
2023-04-19T03:23:51.234Z,35.19
2023-04-19T03:24:51.230Z,33.96
2023-04-19T03:25:51.264Z,37.46
2023-04-19T03:26:51.258Z,37.26
2023-04-19T03:27:51.289Z,34.47
2023-04-19T03:28:51.347Z,36.12
2023-04-19T03:29:51.389Z,32.61
2023-04-19T03:30:51.415Z,35.01
2023-04-19T03:31:51.393Z,35.64
2023-04-19T03:32:51.560Z,36.85
2023-04-19T03:33:51.450Z,36.47
2023-04-19T03:34:51.507Z,36.72
2023-04-19T03:35:51.523Z,37.02
2023-04-19T03:36:51.516Z,35.62
2023-04-19T03:37:51.570Z,36.65
2023-04-19T03:38:51.589Z,36.61
2023-04-19T03:39:51.618Z,34.43
2023-04-19T03:40:51.668Z,34.98
2023-04-19T03:41:51.635Z,37.44
2023-04-19T03:42:51.691Z,34.33
2023-04-19T03:43:51.744Z,36.26
2023-04-19T03:44:51.761Z,33.86
2023-04-19T03:45:51.808Z,37.22
2023-04-19T03:46:51.807Z,34.36
2023-04-19T03:47:51.903Z,35.81
2023-04-19T03:48:51.838Z,35.18
2023-04-19T03:49:51.877Z,35.79
2023-04-19T03:50:51.948Z,36.76
2023-04-19T03:51:51.935Z,33.89
2023-04-19T03:52:51.933Z,36.99
2023-04-19T03:53:51.985Z,34.17
2023-04-19T03:54:52.015Z,36.69
2023-04-19T03:55:52.030Z,36.37
2023-04-19T03:56:52.045Z,36.09
2023-04-19T03:57:52.104Z,36.25
2023-04-19T03:58:52.090Z,34.73
2023-04-19T03:59:52.153Z,36.33
2023-04-19T04:00:52.161Z,36.95
2023-04-19T04:01:52.257Z,35.75
2023-04-19T04:02:52.420Z,36.38
2023-04-19T04:03:52.515Z,37.40
2023-04-19T04:04:52.383Z,38.15
2023-04-19T04:05:52.368Z,35.08
2023-04-19T04:06:52.361Z,35.89
2023-04-19T04:07:52.403Z,36.09
2023-04-19T04:08:52.431Z,36.45
2023-04-19T04:09:52.455Z,37.31
2023-04-19T04:10:52.501Z,36.48
2023-04-19T04:11:52.504Z,34.98
2023-04-19T04:12:52.538Z,36.40
2023-04-19T04:13:52.532Z,35.50
2023-04-19T04:14:52.600Z,36.34
2023-04-19T04:15:52.669Z,34.90
2023-04-19T04:16:52.680Z,34.83
2023-04-19T04:17:52.729Z,35.37
2023-04-19T04:18:52.735Z,37.89
2023-04-19T04:19:52.726Z,37.79
2023-04-19T04:20:52.761Z,35.38
2023-04-19T04:21:52.811Z,35.13
2023-04-19T04:22:52.797Z,36.17
2023-04-19T04:23:52.836Z,35.24
2023-04-19T04:24:52.903Z,38.56
2023-04-19T04:25:52.924Z,37.49
2023-04-19T04:26:52.947Z,34.72
2023-04-19T04:27:53.005Z,37.05
2023-04-19T04:28:52.990Z,34.62
2023-04-19T04:29:53.018Z,37.18
2023-04-19T04:30:53.048Z,37.17
2023-04-19T04:31:53.122Z,34.46
2023-04-19T04:32:53.174Z,37.05
2023-04-19T04:33:53.143Z,37.82
2023-04-19T04:34:53.181Z,36.34
2023-04-19T04:35:53.188Z,36.32
2023-04-19T04:36:53.260Z,38.16
2023-04-19T04:37:53.242Z,38.03
2023-04-19T04:38:53.279Z,37.35
2023-04-19T04:39:53.361Z,39.47
2023-04-19T04:40:53.330Z,38.85
2023-04-19T04:41:53.382Z,37.86
2023-04-19T04:42:53.426Z,36.19
2023-04-19T04:44:08.246Z,37.58
2023-04-19T04:44:54.407Z,37.70
2023-04-19T04:45:53.448Z,37.71
2023-04-19T04:46:53.434Z,37.68
2023-04-19T04:47:53.502Z,35.72
2023-04-19T04:48:53.404Z,37.65
2023-04-19T04:49:53.394Z,37.36
2023-04-19T04:50:53.365Z,36.03
2023-04-19T04:51:53.418Z,40.07
2023-04-19T04:52:53.359Z,38.34
2023-04-19T04:53:53.391Z,38.14
2023-04-19T04:54:53.379Z,37.38
2023-04-19T04:55:53.370Z,37.77
2023-04-19T04:56:53.396Z,35.84
2023-04-19T04:57:53.354Z,38.01
2023-04-19T04:58:53.358Z,38.68
2023-04-19T04:59:53.371Z,38.07
2023-04-19T05:00:53.432Z,38.28
2023-04-19T05:01:53.436Z,36.62
2023-04-19T05:02:53.533Z,36.40
2023-04-19T05:03:53.530Z,40.07
2023-04-19T05:04:53.514Z,36.88
2023-04-19T05:05:53.550Z,36.45
2023-04-19T05:06:53.597Z,39.75
2023-04-19T05:07:53.592Z,36.74
2023-04-19T05:08:53.638Z,36.81
2023-04-19T05:09:53.692Z,38.86
2023-04-19T05:10:53.667Z,36.01
2023-04-19T05:11:53.708Z,37.53
2023-04-19T05:12:53.731Z,37.34
2023-04-19T05:13:53.812Z,37.97
2023-04-19T05:14:53.849Z,38.43
2023-04-19T05:15:53.882Z,37.93
2023-04-19T05:16:54.044Z,36.27
2023-04-19T05:17:53.970Z,38.48
2023-04-19T05:18:53.939Z,36.81
2023-04-19T05:19:53.992Z,37.74
2023-04-19T05:20:54.023Z,36.30
2023-04-19T05:21:54.073Z,38.57
2023-04-19T05:22:54.097Z,38.40
2023-04-19T05:23:54.118Z,37.13
2023-04-19T05:24:54.118Z,38.70
2023-04-19T05:25:54.238Z,37.25
2023-04-19T05:26:54.216Z,38.42
2023-04-19T05:27:54.281Z,37.97
2023-04-19T05:28:54.294Z,38.10
2023-04-19T05:29:54.288Z,37.65
2023-04-19T05:30:54.432Z,37.82
2023-04-19T05:31:54.440Z,36.05
2023-04-19T05:32:54.409Z,36.60
2023-04-19T05:33:54.423Z,35.44
2023-04-19T05:34:54.437Z,38.50
2023-04-19T05:35:54.484Z,39.40
2023-04-19T05:36:54.541Z,36.76
2023-04-19T05:37:54.557Z,32.56
2023-04-19T05:38:54.594Z,29.10
2023-04-19T05:39:54.612Z,33.65
2023-04-19T05:40:54.634Z,38.72
2023-04-19T05:41:54.673Z,39.25
2023-04-19T05:42:54.669Z,43.77
2023-04-19T05:43:54.741Z,42.81
2023-04-19T05:44:54.756Z,40.14
2023-04-19T05:45:54.815Z,42.41
2023-04-19T05:46:54.845Z,40.37
2023-04-19T05:47:54.844Z,42.45
2023-04-19T05:48:54.856Z,39.86
2023-04-19T05:49:54.881Z,43.70
2023-04-19T05:50:54.878Z,41.76
2023-04-19T05:51:54.912Z,43.07
2023-04-19T05:52:54.931Z,43.17
2023-04-19T05:54:55.959Z,41.49
2023-04-19T05:55:54.992Z,41.94
2023-04-19T05:56:54.952Z,42.83
2023-04-19T05:57:54.945Z,35.70
2023-04-19T05:58:54.909Z,40.30
2023-04-19T05:59:54.930Z,42.56
2023-04-19T06:00:54.932Z,42.20
2023-04-19T06:01:54.935Z,41.65
2023-04-19T06:02:54.975Z,43.10
2023-04-19T06:03:55.005Z,43.83
2023-04-19T06:04:54.940Z,43.37
2023-04-19T06:05:54.912Z,44.30
2023-04-19T06:06:54.854Z,42.33
2023-04-19T06:07:59.508Z,43.40
2023-04-19T06:08:55.867Z,43.60
2023-04-19T06:09:54.849Z,42.40
2023-04-19T06:10:58.458Z,43.68
2023-04-19T06:11:55.818Z,43.56
2023-04-19T06:12:54.848Z,43.55
2023-04-19T06:13:54.810Z,42.01
2023-04-19T06:14:54.784Z,41.42
2023-04-19T06:15:54.833Z,40.67
2023-04-19T06:16:54.809Z,42.10
2023-04-19T06:17:54.831Z,39.83
2023-04-19T06:18:54.793Z,40.03
2023-04-19T06:19:54.811Z,42.59
2023-04-19T06:20:54.752Z,41.70
2023-04-19T06:21:54.777Z,42.57
2023-04-19T06:22:54.773Z,41.86
2023-04-19T06:23:54.744Z,41.94
2023-04-19T06:24:54.746Z,41.86
2023-04-19T06:25:54.765Z,42.16
2023-04-19T06:26:54.723Z,43.98
2023-04-19T06:27:54.738Z,42.97
2023-04-19T06:28:54.739Z,42.57
2023-04-19T06:29:54.721Z,41.46
2023-04-19T06:30:54.707Z,42.61
2023-04-19T06:31:54.792Z,41.73
2023-04-19T06:32:54.775Z,42.30
2023-04-19T06:33:54.707Z,34.61
2023-04-19T06:34:54.691Z,38.28
2023-04-19T06:35:54.682Z,40.50
2023-04-19T06:36:54.662Z,44.02
2023-04-19T06:37:54.677Z,39.64
2023-04-19T06:38:54.660Z,44.12
2023-04-19T06:39:54.754Z,37.41
2023-04-19T06:40:54.706Z,35.72
2023-04-19T06:41:54.733Z,39.70
2023-04-19T06:42:54.747Z,36.52
2023-04-19T06:43:54.739Z,31.64
2023-04-19T06:44:54.793Z,34.40
2023-04-19T06:45:54.852Z,30.06
2023-04-19T06:46:54.799Z,30.02
2023-04-19T06:47:54.849Z,34.88
2023-04-19T06:48:54.844Z,27.34
2023-04-19T06:49:54.876Z,25.00
2023-04-19T06:50:54.905Z,29.76
2023-04-19T06:51:54.955Z,28.18
2023-04-19T06:52:54.988Z,31.61
2023-04-19T06:53:55.032Z,33.95
2023-04-19T06:54:55.083Z,36.31
2023-04-19T06:55:55.102Z,34.13
2023-04-19T06:56:55.222Z,27.33
2023-04-19T06:57:55.266Z,32.27
2023-04-19T06:58:55.265Z,37.96
2023-04-19T06:59:55.319Z,42.48
2023-04-19T07:00:55.380Z,47.54
2023-04-19T07:01:55.572Z,49.03
2023-04-19T07:02:55.505Z,51.96
2023-04-19T07:03:57.351Z,58.14
2023-04-19T07:04:55.444Z,56.68
2023-04-19T07:05:55.460Z,52.54
2023-04-19T07:06:55.460Z,61.39
2023-04-19T07:07:55.465Z,49.76
2023-04-19T07:08:55.476Z,49.00
2023-04-19T07:09:55.487Z,64.27
2023-04-19T07:10:55.466Z,74.03
2023-04-19T07:11:55.469Z,80.17
2023-04-19T07:12:55.484Z,83.74
2023-04-19T07:13:55.470Z,87.73
2023-04-19T07:14:55.501Z,89.66
2023-04-19T07:15:55.486Z,89.88
2023-04-19T07:16:55.464Z,92.25
2023-04-19T07:17:55.484Z,94.16
2023-04-19T07:18:55.478Z,93.52
2023-04-19T07:19:55.884Z,93.86
2023-04-19T07:20:55.500Z,64.90
2023-04-19T07:21:55.487Z,60.74
2023-04-19T07:22:55.501Z,73.26
2023-04-19T07:23:55.522Z,73.08
2023-04-19T07:24:55.900Z,74.33
2023-04-19T07:25:55.522Z,70.93
2023-04-19T07:26:55.545Z,64.93
2023-04-19T07:27:55.652Z,63.72
2023-04-19T07:28:55.554Z,61.71
2023-04-19T07:29:55.919Z,58.34
2023-04-19T07:30:55.551Z,56.41
2023-04-19T07:31:55.606Z,48.88
2023-04-19T07:32:55.614Z,41.45
2023-04-19T07:33:55.564Z,42.10
2023-04-19T07:34:55.544Z,45.37
2023-04-19T07:35:55.926Z,44.63
2023-04-19T07:36:55.562Z,44.25
2023-04-19T07:37:55.538Z,42.60
2023-04-19T07:38:55.554Z,42.44
2023-04-19T07:39:55.540Z,42.40
2023-04-19T07:40:55.898Z,48.70
2023-04-19T07:41:55.562Z,54.21
2023-04-19T07:42:55.591Z,58.95
2023-04-19T07:43:55.545Z,67.02
2023-04-19T07:44:55.571Z,69.82
2023-04-19T07:45:56.057Z,72.89
2023-04-19T07:46:55.603Z,63.35
2023-04-19T07:47:55.570Z,55.36
2023-04-19T07:48:55.564Z,65.00
2023-04-19T07:49:55.596Z,45.85
2023-04-19T07:50:55.928Z,47.75
2023-04-19T07:51:55.642Z,54.20
2023-04-19T07:52:55.672Z,51.58
2023-04-19T07:53:55.712Z,55.20
2023-04-19T07:54:55.734Z,42.30
2023-04-19T07:55:55.753Z,32.50
2023-04-19T07:56:55.762Z,42.09
2023-04-19T07:57:56.428Z,60.61
2023-04-19T07:59:06.858Z,57.91
2023-04-19T07:59:56.787Z,58.08
2023-04-19T08:00:55.793Z,51.70
2023-04-19T08:01:55.878Z,48.07
2023-04-19T08:02:55.942Z,51.20
2023-04-19T08:03:55.898Z,56.17
2023-04-19T08:04:55.908Z,52.69
2023-04-19T08:05:55.730Z,55.52
2023-04-19T08:06:55.709Z,50.86
2023-04-19T08:07:55.762Z,55.93
2023-04-19T08:08:55.694Z,54.57
2023-04-19T08:09:55.787Z,52.77
2023-04-19T08:10:55.746Z,48.06
2023-04-19T08:11:55.730Z,47.03
2023-04-19T08:13:04.432Z,46.79
2023-04-19T08:14:08.801Z,46.94
2023-04-19T08:15:02.633Z,47.05
2023-04-19T08:17:22.313Z,47.07
2023-04-19T08:17:56.945Z,47.04
2023-04-19T08:18:55.989Z,45.33
2023-04-19T08:19:56.100Z,41.85
2023-04-19T08:20:56.064Z,43.93
2023-04-19T08:21:56.084Z,42.83
2023-04-19T08:22:56.354Z,41.83
2023-04-19T08:23:56.149Z,45.28
2023-04-19T08:24:56.100Z,42.57
2023-04-19T08:25:56.121Z,37.68
2023-04-19T08:26:57.077Z,36.57
2023-04-19T08:27:56.298Z,35.85
2023-04-19T08:28:56.338Z,35.49
2023-04-19T08:29:56.338Z,37.17
2023-04-19T08:30:56.318Z,34.94
2023-04-19T08:31:56.474Z,41.26
2023-04-19T08:32:57.251Z,37.82
2023-04-19T08:33:56.335Z,35.09
2023-04-19T08:34:56.323Z,33.35
2023-04-19T08:35:56.341Z,33.42
2023-04-19T08:37:03.935Z,35.34
2023-04-19T08:37:57.297Z,35.39
2023-04-19T08:39:05.430Z,33.72
2023-04-19T08:39:57.311Z,35.45
2023-04-19T08:40:56.324Z,35.44
2023-04-19T08:42:07.074Z,19.26
2023-04-19T08:42:57.307Z,22.55
2023-04-19T08:43:56.296Z,5.74
2023-04-19T08:45:56.308Z,11.16
2023-04-19T08:46:56.281Z,8.78
2023-04-19T08:48:01.358Z,25.00
2023-04-19T08:48:57.292Z,25.39
2023-04-19T08:50:08.716Z,26.23
2023-04-19T08:51:05.043Z,25.29
2023-04-19T08:51:57.302Z,25.44
2023-04-19T08:53:02.808Z,27.44
2023-04-19T08:53:57.221Z,25.51
2023-04-19T08:54:56.227Z,25.50
2023-04-19T08:56:10.664Z,25.39
2023-04-19T08:56:57.202Z,19.47
2023-04-19T08:57:56.191Z,9.54
2023-04-19T08:59:11.767Z,0.00
2023-04-19T08:59:57.217Z,12.67
2023-04-19T09:00:56.443Z,8.91
2023-04-19T09:01:56.250Z,15.09
2023-04-19T09:02:56.280Z,20.04
2023-04-19T09:04:04.732Z,25.93
2023-04-19T09:04:57.296Z,25.31
2023-04-19T09:05:56.446Z,26.62
2023-04-19T09:06:56.124Z,29.97
2023-04-19T09:07:56.128Z,29.74
2023-04-19T09:08:56.128Z,40.60
2023-04-19T09:10:02.993Z,45.45
2023-04-19T09:10:57.116Z,45.82
2023-04-19T09:11:56.087Z,45.64
2023-04-19T09:12:56.087Z,46.84
2023-04-19T09:13:56.082Z,53.77
2023-04-19T09:15:01.700Z,59.80
2023-04-19T09:15:57.122Z,45.48
2023-04-19T09:16:56.062Z,45.45
2023-04-19T09:17:56.104Z,48.29
2023-04-19T09:19:02.394Z,55.07
2023-04-19T09:19:57.061Z,46.06
2023-04-19T09:20:56.024Z,48.30
2023-04-19T09:21:56.506Z,48.47
2023-04-19T09:22:56.055Z,51.27
2023-04-19T09:23:56.053Z,45.73
2023-04-19T09:25:22.713Z,59.51
2023-04-19T09:26:56.031Z,60.27
2023-04-19T09:27:56.054Z,59.67
2023-04-19T09:28:56.036Z,50.69
2023-04-19T09:29:55.985Z,61.67
2023-04-19T09:31:05.779Z,59.95
2023-04-19T09:31:57.019Z,60.22
2023-04-19T09:32:56.126Z,60.78
2023-04-19T09:33:55.979Z,64.02
2023-04-19T09:34:56.004Z,69.57
2023-04-19T09:35:55.977Z,71.71
2023-04-19T09:37:08.555Z,71.43
2023-04-19T09:38:05.840Z,71.53
2023-04-19T09:38:56.947Z,71.70
2023-04-19T09:39:55.932Z,72.58
2023-04-19T09:40:55.973Z,71.66
2023-04-19T09:41:55.920Z,77.13
2023-04-19T09:44:11.761Z,71.74
2023-04-19T09:45:27.726Z,72.15
2023-04-19T09:45:56.885Z,72.07
2023-04-19T09:46:55.946Z,74.01
2023-04-19T09:47:55.949Z,71.22
2023-04-19T09:48:55.877Z,65.61
2023-04-19T09:49:55.880Z,65.67
2023-04-19T09:51:00.679Z,70.84
2023-04-19T09:51:56.897Z,56.25
2023-04-19T09:52:55.856Z,48.58
2023-04-19T09:53:55.845Z,51.28
2023-04-19T09:54:55.864Z,50.26
2023-04-19T09:56:01.198Z,51.92
2023-04-19T09:56:58.379Z,50.85
2023-04-19T09:57:55.827Z,46.66
2023-04-19T09:59:01.655Z,44.48
2023-04-19T09:59:56.815Z,48.17
2023-04-19T10:01:55.898Z,38.20
2023-04-19T10:02:56.066Z,36.53
2023-04-19T10:03:56.052Z,35.83
2023-04-19T10:05:15.755Z,32.65
2023-04-19T10:05:57.331Z,32.74
2023-04-19T10:07:24.518Z,31.62
2023-04-19T10:07:59.723Z,32.69
2023-04-19T10:08:55.817Z,32.27
2023-04-19T10:09:59.940Z,26.58
2023-04-19T10:10:56.782Z,31.42
2023-04-19T10:12:03.185Z,23.07
2023-04-19T10:13:11.548Z,25.85
2023-04-19T10:13:56.737Z,28.74
2023-04-19T10:14:55.756Z,26.71
2023-04-19T10:16:01.755Z,21.91
2023-04-19T10:16:57.028Z,25.43
2023-04-19T10:17:55.778Z,20.38
2023-04-19T10:18:55.704Z,16.18
2023-04-19T10:19:55.708Z,16.56
2023-04-19T10:20:55.727Z,15.38
2023-04-19T10:21:55.962Z,27.74
2023-04-19T10:22:57.478Z,25.02
2023-04-19T10:23:55.689Z,25.53
2023-04-19T10:24:55.694Z,27.12
2023-04-19T10:25:55.702Z,27.09
2023-04-19T10:26:55.990Z,27.84
2023-04-19T10:27:55.675Z,26.74
2023-04-19T10:28:55.624Z,26.63
2023-04-19T10:29:55.634Z,27.08
2023-04-19T10:30:55.667Z,25.15
2023-04-19T10:31:56.070Z,27.00
2023-04-19T10:32:55.673Z,28.36
2023-04-19T10:33:55.604Z,25.08
2023-04-19T10:34:55.600Z,26.82
2023-04-19T10:35:55.631Z,27.70
2023-04-19T10:36:55.959Z,26.48
2023-04-19T10:37:55.588Z,29.07
2023-04-19T10:38:55.668Z,27.15
2023-04-19T10:39:55.614Z,26.99
2023-04-19T10:40:55.629Z,26.25
2023-04-19T10:41:55.999Z,25.40
2023-04-19T10:42:55.572Z,27.85
2023-04-19T10:43:55.522Z,26.14
2023-04-19T10:44:55.533Z,26.32
2023-04-19T10:45:55.640Z,27.92
2023-04-19T10:46:55.528Z,27.39
2023-04-19T10:47:55.560Z,27.98
2023-04-19T10:48:55.514Z,28.23
2023-04-19T10:49:55.505Z,29.76
2023-04-19T10:50:55.483Z,27.12
2023-04-19T10:51:55.990Z,28.47
2023-04-19T10:52:55.506Z,28.45
2023-04-19T10:53:55.686Z,25.00
2023-04-19T10:54:55.493Z,29.41
2023-04-19T10:55:55.494Z,26.81
2023-04-19T10:56:55.505Z,27.75
2023-04-19T10:57:55.519Z,28.44
2023-04-19T10:58:55.504Z,27.67
2023-04-19T10:59:55.519Z,27.82
2023-04-19T11:00:55.564Z,33.77
2023-04-19T11:01:56.046Z,27.29
2023-04-19T11:02:55.679Z,30.78
2023-04-19T11:03:55.905Z,33.51
2023-04-19T11:04:55.620Z,33.54
2023-04-19T11:05:55.589Z,35.20
2023-04-19T11:06:55.624Z,37.07
2023-04-19T11:07:55.612Z,35.66
2023-04-19T11:08:55.617Z,38.30
2023-04-19T11:09:55.654Z,40.07
2023-04-19T11:10:55.648Z,39.85
2023-04-19T11:11:55.642Z,41.52
2023-04-19T11:12:55.669Z,41.93
2023-04-19T11:13:55.681Z,42.75
2023-04-19T11:14:55.738Z,61.33
2023-04-19T11:15:55.739Z,62.32
2023-04-19T11:16:56.026Z,108.51
2023-04-19T11:18:11.366Z,102.48
2023-04-19T11:18:56.687Z,98.87
2023-04-19T11:19:55.680Z,103.89
2023-04-19T11:20:55.678Z,114.39
2023-04-19T11:21:55.712Z,125.92
2023-04-19T11:22:55.671Z,136.99
2023-04-19T11:23:55.676Z,132.13
2023-04-19T11:24:55.665Z,132.85
2023-04-19T11:25:55.653Z,135.51
2023-04-19T11:26:55.761Z,135.76
2023-04-19T11:27:55.668Z,134.51
2023-04-19T11:28:55.599Z,134.35
2023-04-19T11:29:55.617Z,132.09
2023-04-19T11:30:55.677Z,135.17
2023-04-19T11:31:55.637Z,136.07
2023-04-19T11:32:55.649Z,136.64
2023-04-19T11:33:55.595Z,135.88
2023-04-19T11:34:55.584Z,135.67
2023-04-19T11:35:55.561Z,135.96
2023-04-19T11:36:55.608Z,134.74
2023-04-19T11:37:55.577Z,133.62
2023-04-19T11:38:55.577Z,133.81
2023-04-19T11:39:55.606Z,133.20
2023-04-19T11:40:55.554Z,130.82
2023-04-19T11:41:55.543Z,130.84
2023-04-19T11:42:55.550Z,134.50
2023-04-19T11:43:55.828Z,132.27
2023-04-19T11:44:55.551Z,130.53
2023-04-19T11:45:55.526Z,129.86
2023-04-19T11:46:55.537Z,128.91
2023-04-19T11:47:55.501Z,128.32
2023-04-19T11:48:55.559Z,126.06
2023-04-19T11:49:55.511Z,129.05
2023-04-19T11:50:55.527Z,128.68
2023-04-19T11:51:55.498Z,126.01
2023-04-19T11:52:55.500Z,127.49
2023-04-19T11:53:55.498Z,126.52
2023-04-19T11:54:55.503Z,127.17
2023-04-19T11:55:55.478Z,124.35
2023-04-19T11:56:55.473Z,125.15
2023-04-19T11:57:55.453Z,124.32
2023-04-19T11:58:55.477Z,123.05
2023-04-19T11:59:55.494Z,123.34
2023-04-19T12:00:55.433Z,120.13
2023-04-19T12:01:55.559Z,122.42
2023-04-19T12:02:55.700Z,119.58
2023-04-19T12:03:55.626Z,119.99
2023-04-19T12:04:55.584Z,116.88
2023-04-19T12:05:55.461Z,117.46
2023-04-19T12:06:55.418Z,116.38
2023-04-19T12:07:55.382Z,114.08
2023-04-19T12:08:55.392Z,116.35
2023-04-19T12:09:55.433Z,114.80
2023-04-19T12:10:55.365Z,115.77
2023-04-19T12:11:55.393Z,118.57
2023-04-19T12:12:55.379Z,114.22
2023-04-19T12:13:55.404Z,113.80
2023-04-19T12:14:55.384Z,114.37
2023-04-19T12:15:55.410Z,111.13
2023-04-19T12:16:55.473Z,112.94
2023-04-19T12:17:57.544Z,112.13
2023-04-19T12:18:55.396Z,112.17
2023-04-19T12:19:55.399Z,111.79
2023-04-19T12:20:55.393Z,112.19
2023-04-19T12:21:55.397Z,112.04
2023-04-19T12:22:55.381Z,110.33
2023-04-19T12:23:55.415Z,109.54
2023-04-19T12:24:55.419Z,109.76
2023-04-19T12:25:55.420Z,109.07
2023-04-19T12:26:56.370Z,109.66
2023-04-19T12:27:56.455Z,109.74
2023-04-19T12:28:55.438Z,109.11
2023-04-19T12:29:55.423Z,107.93
2023-04-19T12:30:55.413Z,105.93
2023-04-19T12:31:55.411Z,106.56
2023-04-19T12:32:55.536Z,103.35
2023-04-19T12:33:55.405Z,103.40
2023-04-19T12:34:55.394Z,106.35
2023-04-19T12:35:55.383Z,102.63
2023-04-19T12:36:55.417Z,102.19
2023-04-19T12:37:55.368Z,99.72
2023-04-19T12:38:55.351Z,101.72
2023-04-19T12:39:56.346Z,101.72
2023-04-19T12:40:55.361Z,103.01
2023-04-19T12:41:55.335Z,101.63
2023-04-19T12:42:55.360Z,99.37
2023-04-19T12:43:55.327Z,98.10
2023-04-19T12:44:55.333Z,95.66
2023-04-19T12:45:55.371Z,98.19
2023-04-19T12:46:55.315Z,95.81
2023-04-19T12:47:55.329Z,97.54
2023-04-19T12:48:55.283Z,95.23
2023-04-19T12:49:55.279Z,96.18
2023-04-19T12:50:55.275Z,94.35
2023-04-19T12:51:57.244Z,92.73
2023-04-19T12:52:55.319Z,93.78
2023-04-19T12:53:55.286Z,93.60
2023-04-19T12:54:55.264Z,95.88
2023-04-19T12:55:55.254Z,93.22
2023-04-19T12:56:55.267Z,94.96